Canehill, Arkansas
Current Conditions -  °F | °C
As of 5:53 PM on Sunday 21 Dec 2014 (Local Time) from KFYV Reporting Station
Scattered Clouds Scattered Clouds  
Wind Chill: 43°   Ceiling: Unl
Heat Index: 43°   Visibility: 10mi
Dew Point: 37°   Wind: 3mph
Humidity: 80%   Direction: 130°SE
Pressure: 29.87"   Gusts: NA
Location:  35.91°N, 94.4°W
Report Text: KFYV 212353Z 13003KT 10SM SCT055 06/03 A2987 RMK AO2 SLP119 T00610028 10083 20056 58015
Loading
Personal Weather Stations






























Interactive Weather Map New forecast layout! Learn more

10-Day Weather Forecast

Advertisements
Track Severe Weather on mobile